Time;durP1;ratioP1;P1;durP2;ratioP2;P2;SDS_P1;SDS_P2;PMS_P1;PMS_P2;Temp;Humidity;BMP_temperature;BMP_pressure;BME280_temperature;BME280_humidity;BME280_pressure;Samples;Min_cycle;Max_cycle;Signal;HPM_P1;HPM_P2
2022/09/12 00:00:22;;;;;;;12.70;8.43;;;;;;;18.55;77.92;100714.44;4987193;28;20559;-67
2022/09/12 00:02:52;;;;;;;12.07;8.87;;;;;;;18.58;77.14;100711.38;4988925;28;20210;-66
2022/09/12 00:05:22;;;;;;;12.20;9.47;;;;;;;18.58;77.26;100709.50;4988273;28;20213;-66
2022/09/12 00:07:50;;;;;;;11.67;8.90;;;;;;;18.51;78.01;100711.28;4989216;28;20246;-66
2022/09/12 00:10:18;;;;;;;13.40;10.33;;;;;;;18.50;77.86;100714.16;4986738;28;21040;-66
2022/09/12 00:12:46;;;;;;;13.23;10.33;;;;;;;18.50;77.77;100712.31;4988206;28;20687;-66
2022/09/12 00:15:13;;;;;;;15.93;10.60;;;;;;;18.46;78.33;100708.38;4989599;28;20276;-65
2022/09/12 00:17:41;;;;;;;17.43;12.30;;;;;;;18.46;78.32;100704.84;4988373;28;20210;-66
2022/09/12 00:20:10;;;;;;;18.13;11.63;;;;;;;18.47;78.16;100698.47;4987784;28;20261;-65
2022/09/12 00:22:39;;;;;;;14.93;11.93;;;;;;;18.44;78.94;100710.41;4986248;28;20225;-66
2022/09/12 00:25:08;;;;;;;14.43;10.33;;;;;;;18.37;78.91;100707.66;4985500;28;20226;-65
2022/09/12 00:27:35;;;;;;;17.20;11.60;;;;;;;18.41;78.07;100700.88;4986475;28;20214;-66
2022/09/12 00:30:05;;;;;;;17.87;11.80;;;;;;;18.41;78.45;100700.88;4985077;28;20291;-65
2022/09/12 00:32:34;;;;;;;17.83;11.93;;;;;;;18.38;78.54;100701.25;4982411;28;20293;-66
2022/09/12 00:35:02;;;;;;;17.83;11.07;;;;;;;18.46;78.02;100696.78;4985060;28;20217;-67
2022/09/12 00:37:30;;;;;;;17.97;11.47;;;;;;;18.37;78.46;100696.94;4984298;28;20218;-66
2022/09/12 00:39:59;;;;;;;15.70;11.03;;;;;;;18.34;79.12;100691.94;4986371;28;20260;-65
2022/09/12 00:42:26;;;;;;;14.90;11.43;;;;;;;18.32;79.34;100691.28;4985759;28;20202;-66
2022/09/12 00:44:54;;;;;;;15.57;11.10;;;;;;;18.25;79.28;100695.78;4984989;28;20889;-67
2022/09/12 00:47:27;;;;;;;17.73;11.40;;;;;;;18.20;79.89;100697.38;4986444;28;20663;-66
2022/09/12 00:50:01;;;;;;;15.13;11.20;;;;;;;18.16;79.81;100694.25;4982256;28;20880;-66
2022/09/12 00:52:33;;;;;;;14.87;11.03;;;;;;;18.17;80.06;100697.75;4985925;28;20635;-68
2022/09/12 00:55:06;;;;;;;16.43;11.77;;;;;;;18.11;79.88;100699.38;4986829;28;20280;-66
2022/09/12 00:57:38;;;;;;;17.97;10.93;;;;;;;18.06;80.19;100696.41;4986899;28;20210;-66
2022/09/12 01:00:12;;;;;;;12.50;9.30;;;;;;;18.04;80.18;100695.75;4987264;28;20207;-66
2022/09/12 01:02:40;;;;;;;12.03;9.73;;;;;;;18.03;79.87;100700.31;4983904;28;20237;-66
2022/09/12 01:05:09;;;;;;;15.97;10.10;;;;;;;18.03;79.64;100694.94;4985672;28;20210;-66
2022/09/12 01:07:38;;;;;;;11.93;9.30;;;;;;;18.01;79.79;100688.94;4986379;28;20709;-67
2022/09/12 01:10:09;;;;;;;13.33;9.63;;;;;;;18.05;79.33;100686.69;4985721;28;20260;-67
2022/09/12 01:12:40;;;;;;;12.80;9.80;;;;;;;18.05;79.13;100684.00;4988290;28;20277;-67
2022/09/12 01:15:09;;;;;;;11.93;8.87;;;;;;;18.04;79.20;100690.41;4990200;28;20194;-67
2022/09/12 01:17:48;;;;;;;16.17;9.50;;;;;;;17.98;79.04;100692.00;4990931;28;20214;-67
2022/09/12 01:20:50;;;;;;;14.20;9.53;;;;;;;17.96;79.02;100688.69;4984841;28;20257;-66
2022/09/12 01:23:53;;;;;;;14.70;9.33;;;;;;;17.96;79.11;100690.53;4984333;28;20205;-66
2022/09/12 01:26:49;;;;;;;12.90;9.23;;;;;;;17.94;78.80;100681.84;4987631;28;20206;-65
2022/09/12 01:29:45;;;;;;;15.27;9.67;;;;;;;17.93;79.02;100689.06;4988174;28;20903;-67
2022/09/12 01:32:23;;;;;;;12.57;9.40;;;;;;;17.86;79.17;100690.00;4988563;28;20237;-66
2022/09/12 01:34:58;;;;;;;13.87;9.70;;;;;;;17.85;78.98;100683.84;4991069;28;20228;-66
2022/09/12 01:37:33;;;;;;;13.97;9.67;;;;;;;17.91;78.45;100683.06;4988859;28;20210;-66
2022/09/12 01:40:09;;;;;;;12.70;9.80;;;;;;;17.92;78.09;100681.22;4986287;28;20213;-66
2022/09/12 01:42:45;;;;;;;13.17;10.07;;;;;;;17.82;78.75;100678.00;4986763;28;20259;-68
2022/09/12 01:45:21;;;;;;;13.60;9.73;;;;;;;17.76;78.77;100676.94;4986591;28;20233;-66
2022/09/12 01:47:55;;;;;;;14.27;9.83;;;;;;;17.80;78.79;100680.03;4986867;28;20301;-65
2022/09/12 01:50:28;;;;;;;14.13;10.20;;;;;;;17.80;78.99;100670.16;4984681;28;20214;-67
2022/09/12 01:52:59;;;;;;;15.47;10.43;;;;;;;17.70;79.04;100676.81;4988630;28;20210;-67
2022/09/12 01:55:31;;;;;;;16.33;11.30;;;;;;;17.66;79.89;100668.34;4988853;28;20202;-66
2022/09/12 01:58:05;;;;;;;18.67;11.57;;;;;;;17.57;79.23;100672.97;4987895;28;20207;-67
2022/09/12 02:00:35;;;;;;;16.60;11.80;;;;;;;17.50;79.50;100672.03;4988426;28;20706;-65
2022/09/12 02:03:11;;;;;;;18.73;12.83;;;;;;;17.52;80.21;100661.97;4989816;28;20218;-66
2022/09/12 02:05:44;;;;;;;15.20;11.33;;;;;;;17.63;79.23;100668.72;4989050;28;20202;-66
2022/09/12 02:08:16;;;;;;;17.17;11.73;;;;;;;17.63;78.99;100666.88;4988057;28;20229;-66
2022/09/12 02:10:49;;;;;;;17.47;12.03;;;;;;;17.60;79.29;100661.00;4987081;28;20254;-68
2022/09/12 02:13:20;;;;;;;17.70;12.17;;;;;;;17.57;79.60;100659.56;4987306;28;20254;-66
2022/09/12 02:15:54;;;;;;;15.50;11.20;;;;;;;17.64;79.00;100660.50;4988605;28;20202;-67
2022/09/12 02:18:26;;;;;;;17.90;11.03;;;;;;;17.67;78.43;100660.13;4985773;28;20210;-67
2022/09/12 02:20:54;;;;;;;15.97;12.10;;;;;;;17.65;79.07;100655.97;4988933;28;20639;-67
2022/09/12 02:23:26;;;;;;;16.70;11.23;;;;;;;17.58;79.19;100660.38;4989552;28;20210;-67
2022/09/12 02:25:57;;;;;;;16.73;11.20;;;;;;;17.54;79.39;100649.19;4988966;28;20210;-68
2022/09/12 02:28:29;;;;;;;18.13;12.03;;;;;;;17.57;79.03;100659.56;4990410;28;20312;-65
2022/09/12 02:31:05;;;;;;;16.80;11.57;;;;;;;17.55;79.11;100650.88;4989040;28;20288;-66
2022/09/12 02:33:46;;;;;;;17.20;11.23;;;;;;;17.52;79.14;100645.88;4989408;28;20623;-66
2022/09/12 02:36:22;;;;;;;17.70;11.77;;;;;;;17.45;79.32;100644.97;4986536;28;20277;-67
2022/09/12 02:38:50;;;;;;;17.97;12.63;;;;;;;17.39;79.19;100645.72;4986080;28;20288;-66
2022/09/12 02:41:20;;;;;;;17.40;11.87;;;;;;;17.37;79.56;100641.56;4980957;28;20215;-66
2022/09/12 02:43:50;;;;;;;17.70;11.93;;;;;;;17.32;79.31;100655.53;4988450;28;20206;-66
2022/09/12 02:46:23;;;;;;;17.37;11.50;;;;;;;17.27;79.57;100650.72;4986163;28;20264;-67
2022/09/12 02:48:53;;;;;;;22.30;12.23;;;;;;;17.29;79.82;100650.56;4988462;28;20211;-67
2022/09/12 02:51:21;;;;;;;17.30;12.27;;;;;;;17.29;80.00;100647.88;4985272;28;20248;-67
2022/09/12 02:53:50;;;;;;;18.43;12.03;;;;;;;17.28;79.88;100646.22;4988001;28;20214;-66
2022/09/12 02:56:23;;;;;;;20.73;11.97;;;;;;;17.25;80.47;100649.25;4989222;28;20650;-66
2022/09/12 02:58:52;;;;;;;19.07;12.50;;;;;;;17.20;80.45;100644.47;4991821;28;20274;-68
2022/09/12 03:01:37;;;;;;;19.70;13.60;;;;;;;17.18;80.37;100640.31;4987317;28;20265;-68
2022/09/12 03:04:26;;;;;;;19.87;12.67;;;;;;;17.19;80.39;100644.66;4987105;28;20655;-67
2022/09/12 03:07:07;;;;;;;19.57;12.30;;;;;;;17.22;80.23;100638.91;4987161;28;20328;-66
2022/09/12 03:09:42;;;;;;;16.97;12.27;;;;;;;17.29;79.75;100642.50;4988316;28;20205;-65
2022/09/12 03:12:29;;;;;;;17.53;11.97;;;;;;;17.30;79.51;100633.44;4985503;28;20261;-66
2022/09/12 03:15:09;;;;;;;20.93;13.17;;;;;;;17.37;79.27;100637.03;4988960;28;20781;-66
2022/09/12 03:17:52;;;;;;;19.97;13.47;;;;;;;17.46;78.46;100629.72;4982894;28;20272;-66
2022/09/12 03:20:30;;;;;;;17.53;12.37;;;;;;;17.54;77.94;100626.91;4988744;28;20210;-66
2022/09/12 03:23:03;;;;;;;20.30;13.33;;;;;;;17.53;78.08;100626.09;4985934;28;20240;-66
2022/09/12 03:25:35;;;;;;;21.37;13.57;;;;;;;17.50;78.31;100631.81;4987376;28;20210;-66
2022/09/12 03:28:08;;;;;;;22.33;14.50;;;;;;;17.39;79.31;100632.31;4987036;28;20209;-67
2022/09/12 03:30:39;;;;;;;20.33;13.53;;;;;;;17.37;79.47;100634.34;4985962;28;20221;-66
2022/09/12 03:33:10;;;;;;;22.20;14.83;;;;;;;17.39;79.56;100635.00;4974165;28;20325;-66
2022/09/12 03:35:39;;;;;;;23.43;15.20;;;;;;;17.40;79.39;100635.84;4971998;28;20207;-66
2022/09/12 03:38:07;;;;;;;22.60;15.97;;;;;;;17.39;79.29;100640.38;4967197;28;20206;-65
2022/09/12 03:40:35;;;;;;;23.60;15.40;;;;;;;17.33;79.65;100630.38;4968472;28;20211;-65
2022/09/12 03:43:04;;;;;;;24.77;15.20;;;;;;;17.30;79.82;100630.78;4970840;28;20254;-66
2022/09/12 03:45:32;;;;;;;20.47;15.03;;;;;;;17.32;79.68;100634.09;4970633;28;20258;-67
2022/09/12 03:47:59;;;;;;;24.87;14.73;;;;;;;17.31;80.16;100645.84;4968292;28;20225;-66
2022/09/12 03:50:27;;;;;;;24.27;15.37;;;;;;;17.31;80.04;100637.81;4968409;28;20278;-66
2022/09/12 03:52:58;;;;;;;23.37;14.70;;;;;;;17.29;79.89;100640.66;4968876;28;20234;-66
2022/09/12 03:55:26;;;;;;;24.53;14.23;;;;;;;17.24;79.98;100642.22;4968686;28;20219;-65
2022/09/12 03:57:54;;;;;;;22.20;14.40;;;;;;;17.19;80.51;100642.78;4967064;28;20620;-66
2022/09/12 04:00:22;;;;;;;20.57;14.53;;;;;;;17.17;80.53;100641.31;4970618;28;20203;-66
2022/09/12 04:02:54;;;;;;;21.03;14.07;;;;;;;17.10;81.11;100635.88;4968468;28;20924;-66
2022/09/12 04:05:22;;;;;;;23.93;14.27;;;;;;;17.11;80.69;100642.06;4966609;28;20238;-67
2022/09/12 04:07:50;;;;;;;19.83;13.67;;;;;;;17.07;81.03;100643.44;4968908;28;21036;-66
2022/09/12 04:10:19;;;;;;;21.53;14.23;;;;;;;17.11;80.99;100644.75;4968611;28;20198;-67
2022/09/12 04:12:47;;;;;;;21.20;13.47;;;;;;;17.15;80.12;100641.50;4966985;28;20235;-66
2022/09/12 04:15:14;;;;;;;18.33;13.10;;;;;;;17.20;79.47;100640.94;4963418;28;20278;-66
2022/09/12 04:17:42;;;;;;;19.87;14.00;;;;;;;17.18;78.93;100638.44;4966574;28;20257;-68
2022/09/12 04:20:10;;;;;;;19.77;13.53;;;;;;;17.23;78.83;100641.41;4967431;28;20238;-67
2022/09/12 04:22:38;;;;;;;20.37;13.73;;;;;;;17.23;78.82;100640.59;4966506;28;20207;-66
2022/09/12 04:25:08;;;;;;;19.97;13.83;;;;;;;17.17;79.30;100641.31;4966022;28;20219;-68
2022/09/12 04:27:37;;;;;;;23.90;13.37;;;;;;;17.18;78.98;100637.63;4968585;28;20609;-67
2022/09/12 04:30:06;;;;;;;24.57;14.20;;;;;;;17.16;79.50;100642.31;4964540;28;20314;-68
2022/09/12 04:32:33;;;;;;;23.27;14.93;;;;;;;17.15;79.42;100643.38;4975813;28;20337;-65
2022/09/12 04:35:01;;;;;;;23.87;14.70;;;;;;;17.12;79.91;100647.25;4985974;28;20222;-66
2022/09/12 04:37:29;;;;;;;20.47;13.87;;;;;;;17.04;80.27;100643.84;4985245;28;20210;-67
2022/09/12 04:39:58;;;;;;;23.67;14.80;;;;;;;17.02;80.59;100644.00;4982190;28;20225;-65
2022/09/12 04:42:26;;;;;;;22.73;13.90;;;;;;;17.08;80.51;100639.75;4986641;28;21201;-67
2022/09/12 04:44:55;;;;;;;22.63;14.20;;;;;;;17.11;80.29;100644.75;4986141;28;20675;-67
2022/09/12 04:47:22;;;;;;;21.40;14.40;;;;;;;17.10;80.32;100637.72;4990441;28;20214;-66
2022/09/12 04:49:51;;;;;;;22.83;14.27;;;;;;;17.10;80.22;100645.75;4989015;28;20241;-66
2022/09/12 04:52:18;;;;;;;22.90;13.57;;;;;;;17.17;79.53;100644.00;4989274;28;20289;-67
2022/09/12 04:54:46;;;;;;;25.27;14.00;;;;;;;17.25;79.46;100643.88;4993015;28;20625;-66
2022/09/12 04:57:14;;;;;;;26.30;16.13;;;;;;;17.20;79.82;100640.94;4988800;28;20210;-67
2022/09/12 04:59:41;;;;;;;25.33;16.37;;;;;;;17.25;80.17;100641.22;4989070;28;20273;-65
2022/09/12 05:02:10;;;;;;;26.60;17.20;;;;;;;17.25;80.73;100641.22;4988775;28;20210;-65
2022/09/12 05:04:38;;;;;;;31.73;16.77;;;;;;;17.21;81.25;100631.91;4989446;28;20202;-67
2022/09/12 05:07:06;;;;;;;28.70;16.47;;;;;;;17.13;82.29;100638.19;4988937;28;20804;-66
2022/09/12 05:09:33;;;;;;;25.30;15.13;;;;;;;17.15;82.41;100635.34;4992268;28;20206;-67
2022/09/12 05:12:01;;;;;;;29.27;17.90;;;;;;;17.19;82.01;100629.41;4990266;28;20245;-68
2022/09/12 05:14:32;;;;;;;24.17;15.37;;;;;;;17.17;81.32;100634.09;4992346;28;20216;-65
2022/09/12 05:17:00;;;;;;;23.87;15.37;;;;;;;17.16;81.52;100636.97;4988646;28;20207;-66
2022/09/12 05:19:31;;;;;;;25.97;15.97;;;;;;;17.18;81.06;100642.97;4991242;28;20240;-66
2022/09/12 05:21:59;;;;;;;20.60;14.60;;;;;;;17.08;81.58;100631.72;4990211;28;20206;-67
2022/09/12 05:24:27;;;;;;;21.57;14.77;;;;;;;17.00;82.12;100640.69;4991217;28;20270;-66
2022/09/12 05:26:55;;;;;;;22.50;15.53;;;;;;;16.97;81.86;100643.75;4987966;28;20214;-68
2022/09/12 05:29:23;;;;;;;22.30;15.90;;;;;;;16.96;82.39;100638.56;4990724;28;20695;-65
2022/09/12 05:31:52;;;;;;;23.67;16.20;;;;;;;17.01;81.29;100636.16;4987274;28;20242;-66
2022/09/12 05:34:20;;;;;;;23.53;15.57;;;;;;;17.02;81.43;100637.81;4988172;28;20214;-69
2022/09/12 05:36:49;;;;;;;23.83;16.07;;;;;;;17.07;81.06;100630.03;4989937;28;20695;-66
2022/09/12 05:39:17;;;;;;;24.53;16.13;;;;;;;17.08;81.04;100643.25;4989551;28;20609;-67
2022/09/12 05:41:46;;;;;;;28.93;17.40;;;;;;;17.15;80.62;100635.34;4988110;28;20917;-66
2022/09/12 05:44:14;;;;;;;24.23;15.13;;;;;;;17.16;81.19;100639.66;4990772;28;20647;-66
2022/09/12 05:46:43;;;;;;;28.90;15.23;;;;;;;17.14;80.73;100642.53;4988318;28;20261;-66
2022/09/12 05:49:13;;;;;;;23.10;15.27;;;;;;;17.11;81.35;100639.38;4989771;28;20365;-67
2022/09/12 05:51:43;;;;;;;23.13;14.47;;;;;;;17.06;81.63;100639.13;4990184;28;20207;-66
2022/09/12 05:54:13;;;;;;;24.43;14.60;;;;;;;17.06;81.77;100644.50;4989923;28;20237;-66
2022/09/12 05:56:43;;;;;;;22.87;14.67;;;;;;;17.15;80.96;100643.38;4987750;28;20210;-65
2022/09/12 05:59:13;;;;;;;22.63;14.93;;;;;;;17.13;81.09;100645.41;4991499;28;20265;-65
2022/09/12 06:01:41;;;;;;;22.00;14.27;;;;;;;17.05;81.33;100646.34;4989281;28;21112;-66
2022/09/12 06:04:09;;;;;;;23.17;14.50;;;;;;;17.03;82.12;100650.19;4981818;28;20203;-67
2022/09/12 06:06:40;;;;;;;21.60;14.63;;;;;;;17.10;81.92;100645.75;4987045;28;20222;-66
2022/09/12 06:09:08;;;;;;;21.73;14.70;;;;;;;17.14;81.83;100645.22;4988582;28;20206;-66
2022/09/12 06:11:40;;;;;;;20.27;13.80;;;;;;;17.12;82.35;100649.94;4986449;28;20210;-65
2022/09/12 06:14:09;;;;;;;22.47;15.27;;;;;;;17.12;82.74;100651.78;4984841;28;20226;-66
2022/09/12 06:16:37;;;;;;;23.33;15.57;;;;;;;17.13;83.25;100651.59;4987257;28;20261;-65
2022/09/12 06:19:07;;;;;;;22.43;15.00;;;;;;;17.21;82.97;100651.50;4983714;28;20695;-66
2022/09/12 06:21:37;;;;;;;25.13;15.47;;;;;;;17.27;82.40;100653.41;4984718;28;20222;-66
2022/09/12 06:24:06;;;;;;;25.40;15.63;;;;;;;17.30;82.61;100639.66;4989715;28;20198;-66
2022/09/12 06:26:33;;;;;;;22.83;15.43;;;;;;;17.28;83.17;100649.72;4988209;28;20206;-66
2022/09/12 06:29:03;;;;;;;25.40;16.00;;;;;;;17.27;83.80;100633.81;4987259;28;20222;-67
2022/09/12 06:31:33;;;;;;;23.90;16.13;;;;;;;17.28;84.30;100640.84;4985634;28;20667;-67
2022/09/12 06:34:02;;;;;;;25.23;15.73;;;;;;;17.39;83.60;100626.13;4988898;28;20241;-66
2022/09/12 06:36:32;;;;;;;26.33;14.83;;;;;;;17.39;83.76;100629.66;4984158;28;20623;-67
2022/09/12 06:39:02;;;;;;;24.00;15.27;;;;;;;17.42;83.47;100634.59;4989688;28;20284;-66
2022/09/12 06:41:31;;;;;;;22.23;15.60;;;;;;;17.42;83.73;100636.47;4984910;28;20218;-67
2022/09/12 06:43:59;;;;;;;24.30;15.53;;;;;;;17.44;83.41;100637.94;4984770;28;20207;-65
2022/09/12 06:46:29;;;;;;;23.10;16.07;;;;;;;17.49;84.07;100648.94;4989410;28;20265;-66
2022/09/12 06:48:58;;;;;;;25.20;15.80;;;;;;;17.57;82.84;100653.34;4990030;28;20262;-66
2022/09/12 06:51:26;;;;;;;32.17;17.23;;;;;;;17.60;82.33;100652.97;4986718;28;20206;-66
2022/09/12 06:53:56;;;;;;;23.40;16.07;;;;;;;17.60;82.33;100653.78;4992617;28;20226;-66
2022/09/12 06:56:26;;;;;;;23.33;15.93;;;;;;;17.62;82.59;100656.31;4989962;28;20230;-67
2022/09/12 06:58:56;;;;;;;27.57;16.37;;;;;;;17.71;81.61;100657.88;4988954;28;20254;-66
2022/09/12 07:01:26;;;;;;;23.70;16.60;;;;;;;17.72;82.24;100659.53;4988321;28;20280;-65
2022/09/12 07:03:57;;;;;;;27.43;16.77;;;;;;;17.71;82.20;100662.41;4987359;28;20314;-66
2022/09/12 07:06:30;;;;;;;23.33;15.93;;;;;;;17.75;82.58;100651.13;4989154;28;20206;-67
2022/09/12 07:08:58;;;;;;;24.33;15.20;;;;;;;17.80;82.17;100656.72;4987005;28;20210;-67
2022/09/12 07:11:29;;;;;;;22.67;15.90;;;;;;;17.85;82.03;100656.19;4991208;28;20210;-65
2022/09/12 07:13:58;;;;;;;24.00;17.00;;;;;;;17.86;82.11;100655.13;4992473;28;20736;-65
2022/09/12 07:16:25;;;;;;;25.13;16.93;;;;;;;17.96;81.97;100658.31;4987891;28;20213;-67
2022/09/12 07:18:57;;;;;;;23.33;16.40;;;;;;;18.02;81.79;100654.91;4988382;28;20221;-66
2022/09/12 07:21:24;;;;;;;22.00;15.97;;;;;;;18.04;81.61;100655.53;4986032;28;20259;-65
2022/09/12 07:23:54;;;;;;;25.37;15.60;;;;;;;18.08;80.94;100651.44;4989319;28;20210;-66
2022/09/12 07:26:21;;;;;;;22.63;15.83;;;;;;;18.15;80.05;100648.81;4989895;28;20292;-65
2022/09/12 07:28:52;;;;;;;21.20;15.53;;;;;;;18.17;79.56;100647.59;4987416;28;20281;-64
2022/09/12 07:31:22;;;;;;;20.27;15.20;;;;;;;18.15;80.31;100651.50;4986784;28;20202;-66
2022/09/12 07:33:50;;;;;;;24.43;16.27;;;;;;;18.17;80.03;100644.91;4990938;28;20641;-66
2022/09/12 07:36:24;;;;;;;26.27;17.43;;;;;;;18.20;80.82;100649.91;4989507;28;20233;-67
2022/09/12 07:38:56;;;;;;;21.80;15.63;;;;;;;18.23;80.80;100648.66;4995284;28;20210;-66
2022/09/12 07:41:26;;;;;;;23.20;14.93;;;;;;;18.22;80.94;100641.63;4999583;28;20214;-67
2022/09/12 07:43:55;;;;;;;24.43;16.33;;;;;;;18.22;81.82;100653.22;4993113;28;20252;-67
2022/09/12 07:46:24;;;;;;;20.93;15.33;;;;;;;18.24;81.33;100644.97;4989710;28;20529;-66
2022/09/12 07:48:52;;;;;;;20.80;15.30;;;;;;;18.33;80.83;100644.63;4988804;28;20229;-66
2022/09/12 07:51:20;;;;;;;22.40;14.73;;;;;;;18.42;80.65;100637.28;4988241;28;20218;-67
2022/09/12 07:53:50;;;;;;;23.27;14.60;;;;;;;18.54;80.23;100641.09;4985020;28;20226;-66
2022/09/12 07:56:20;;;;;;;23.10;16.10;;;;;;;18.65;79.34;100637.03;4992546;28;20217;-66
2022/09/12 07:58:49;;;;;;;22.07;15.57;;;;;;;18.76;78.88;100636.50;4990900;28;20210;-62
2022/09/12 08:01:18;;;;;;;23.33;16.50;;;;;;;18.83;79.46;100629.31;4986638;28;20663;-62
2022/09/12 08:03:48;;;;;;;23.20;15.27;;;;;;;18.92;79.33;100632.66;4986421;28;20257;-66
2022/09/12 08:06:19;;;;;;;26.50;15.17;;;;;;;19.02;78.37;100628.59;4985137;28;20839;-66
2022/09/12 08:08:47;;;;;;;23.13;14.67;;;;;;;19.13;77.82;100630.72;4990742;28;20254;-66
2022/09/12 08:11:18;;;;;;;21.10;15.23;;;;;;;19.25;78.01;100633.66;4983247;28;20210;-66
2022/09/12 08:13:46;;;;;;;21.90;15.60;;;;;;;19.38;76.44;100630.19;4985790;28;20221;-66
2022/09/12 08:16:22;;;;;;;22.37;15.90;;;;;;;19.51;75.91;100632.97;4986520;28;20886;-66
2022/09/12 08:18:50;;;;;;;24.40;16.43;;;;;;;19.65;76.25;100639.19;4987006;28;20272;-67
2022/09/12 08:21:19;;;;;;;22.20;15.77;;;;;;;19.84;74.93;100633.88;4990279;28;20222;-69
2022/09/12 08:23:47;;;;;;;22.27;15.37;;;;;;;19.99;74.69;100619.38;4995060;28;20217;-67
2022/09/12 08:26:16;;;;;;;21.93;15.60;;;;;;;20.20;72.38;100617.34;4986896;28;20225;-68
2022/09/12 08:28:45;;;;;;;20.07;14.53;;;;;;;20.40;72.17;100625.44;4998524;28;20228;-67
2022/09/12 08:31:15;;;;;;;17.73;13.77;;;;;;;20.66;71.75;100627.28;4992188;28;20205;-68
2022/09/12 08:33:43;;;;;;;22.97;14.80;;;;;;;20.86;70.62;100628.03;4990440;28;20301;-69
2022/09/12 08:36:12;;;;;;;23.20;16.03;;;;;;;21.16;67.94;100633.78;4994296;28;20300;-69
2022/09/12 08:38:42;;;;;;;20.17;14.53;;;;;;;21.46;66.72;100638.66;4989277;28;20220;-68
2022/09/12 08:41:19;;;;;;;19.40;14.33;;;;;;;21.87;64.58;100633.63;4993045;28;20247;-69
2022/09/12 08:44:03;;;;;;;20.17;13.93;;;;;;;22.28;61.96;100635.00;4990467;28;20210;-68
2022/09/12 08:46:37;;;;;;;18.37;12.53;;;;;;;22.93;59.83;100635.47;4989575;28;20222;-69
2022/09/12 08:49:10;;;;;;;18.73;13.57;;;;;;;24.04;57.00;100638.59;4991660;28;20253;-69
2022/09/12 08:51:39;;;;;;;17.05;12.65;;;;;;;25.79;51.37;100635.69;4996569;28;20237;-70
2022/09/12 08:54:16;;;;;;;20.17;11.57;;;;;;;27.88;45.06;100627.53;4991145;28;20277;-69
2022/09/12 08:56:46;;;;;;;13.43;10.50;;;;;;;30.03;39.88;100625.69;4989249;28;20714;-67
2022/09/12 08:59:15;;;;;;;12.18;8.57;;;;;;;31.74;36.82;100620.84;4989607;28;20206;-69
2022/09/12 09:01:45;;;;;;;16.67;9.45;;;;;;;33.15;33.86;100615.13;4989861;28;20214;-67
2022/09/12 09:04:37;;;;;;;13.40;8.88;;;;;;;34.51;31.58;100614.97;4989047;28;20244;-69
2022/09/12 09:07:22;;;;;;;12.93;9.60;;;;;;;35.58;29.59;100601.75;4991603;28;20214;-70
2022/09/12 09:10:04;;;;;;;13.88;10.20;;;;;;;36.76;28.14;100601.25;4988058;28;20218;-67
2022/09/12 09:12:38;;;;;;;12.77;10.65;;;;;;;37.46;27.17;100590.03;4987132;28;20694;-69
2022/09/12 09:15:26;;;;;;;12.35;9.82;;;;;;;38.06;25.85;100594.75;4988465;28;20628;-70
2022/09/12 09:17:59;;;;;;;13.23;10.15;;;;;;;36.23;28.23;100598.53;4987806;28;20300;-66
2022/09/12 09:20:30;;;;;;;11.60;8.65;;;;;;;34.58;30.69;100598.84;4984515;28;20206;-66
2022/09/12 09:23:03;;;;;;;10.43;8.70;;;;;;;33.50;31.41;100597.34;4985410;28;20307;-66
2022/09/12 09:25:42;;;;;;;12.68;9.35;;;;;;;32.30;32.92;100599.28;4988116;28;20750;-66
2022/09/12 09:28:17;;;;;;;11.45;7.93;;;;;;;31.44;33.90;100599.91;4988877;28;20213;-66
2022/09/12 09:30:46;;;;;;;12.43;8.30;;;;;;;31.38;34.91;100604.59;4989625;28;20205;-67
2022/09/12 09:33:21;;;;;;;9.88;8.38;;;;;;;32.08;33.45;100598.91;4988635;28;20246;-67
2022/09/12 09:35:55;;;;;;;10.90;8.50;;;;;;;33.28;32.31;100591.59;4988030;28;20213;-67
2022/09/12 09:38:29;;;;;;;10.18;8.55;;;;;;;33.52;31.86;100586.84;4990285;28;20206;-67
2022/09/12 09:41:16;;;;;;;9.82;8.80;;;;;;;32.32;33.17;100591.59;4993810;28;20215;-67
2022/09/12 09:43:44;;;;;;;10.63;8.23;;;;;;;30.49;36.31;100586.28;4999519;28;20202;-66
2022/09/12 09:46:15;;;;;;;11.93;8.75;;;;;;;28.95;39.05;100592.84;4993516;28;20874;-66
2022/09/12 09:48:45;;;;;;;12.23;9.82;;;;;;;27.74;41.12;100592.78;4994129;28;20628;-65
2022/09/12 09:51:16;;;;;;;11.07;8.98;;;;;;;26.81;43.67;100600.13;4999882;28;20256;-66
2022/09/12 09:53:48;;;;;;;11.20;8.10;;;;;;;26.01;46.35;100601.34;4993567;28;20816;-68
2022/09/12 09:56:30;;;;;;;13.73;8.88;;;;;;;25.49;46.91;100604.19;4991906;28;20230;-67
2022/09/12 09:59:08;;;;;;;8.88;7.35;;;;;;;25.02;48.41;100605.41;4993403;28;20217;-66
2022/09/12 10:01:43;;;;;;;13.73;8.38;;;;;;;24.73;48.20;100604.47;4992789;28;20285;-66
2022/09/12 10:04:19;;;;;;;11.15;7.82;;;;;;;24.43;49.14;100603.78;4991863;28;20677;-67
2022/09/12 10:06:47;;;;;;;11.50;9.18;;;;;;;24.23;49.94;100598.72;4992143;28;20292;-66
2022/09/12 10:09:21;;;;;;;12.82;10.07;;;;;;;24.08;50.37;100593.72;4995600;28;20213;-66
2022/09/12 10:11:50;;;;;;;13.32;10.05;;;;;;;23.90;51.16;100588.41;4990359;28;20261;-69
2022/09/12 10:14:34;;;;;;;12.15;10.02;;;;;;;23.97;51.06;100594.53;4992852;28;20214;-68
2022/09/12 10:17:22;;;;;;;11.57;8.10;;;;;;;23.91;51.57;100587.34;4995231;28;20285;-68
2022/09/12 10:19:52;;;;;;;10.82;8.27;;;;;;;23.77;51.88;100575.06;4995259;28;20242;-68
2022/09/12 10:22:39;;;;;;;11.38;7.93;;;;;;;23.77;51.61;100578.59;4991403;28;20243;-67
2022/09/12 10:25:12;;;;;;;10.70;8.15;;;;;;;23.66;51.63;100567.75;4990572;28;20209;-68
2022/09/12 10:27:41;;;;;;;7.63;6.00;;;;;;;23.59;51.70;100579.47;4991028;28;20679;-67
2022/09/12 10:30:18;;;;;;;8.57;6.38;;;;;;;23.65;50.57;100574.22;4992576;28;20214;-67
2022/09/12 10:32:50;;;;;;;11.07;7.10;;;;;;;23.51;50.64;100579.81;4983862;28;20768;-68
2022/09/12 10:35:20;;;;;;;9.60;6.28;;;;;;;23.44;51.62;100573.63;4973395;28;20230;-67
2022/09/12 10:37:54;;;;;;;8.98;6.07;;;;;;;23.45;51.86;100569.88;4972695;28;20317;-67
2022/09/12 10:40:25;;;;;;;11.23;6.60;;;;;;;23.53;52.07;100566.88;4970650;28;20210;-72
2022/09/12 10:42:54;;;;;;;10.10;6.82;;;;;;;23.69;51.37;100561.84;4971308;28;20214;-70
2022/09/12 10:45:28;;;;;;;14.13;7.65;;;;;;;23.70;51.67;100566.22;4969295;28;20207;-69
2022/09/12 10:48:00;;;;;;;9.95;7.80;;;;;;;23.72;51.13;100562.22;4969984;28;20217;-70
2022/09/12 10:50:39;;;;;;;10.13;7.50;;;;;;;23.74;50.89;100554.69;4965802;28;20296;-70
2022/09/12 10:53:16;;;;;;;11.10;7.60;;;;;;;23.72;50.39;100545.97;4976944;28;20218;-71
2022/09/12 10:56:01;;;;;;;10.55;7.88;;;;;;;24.01;50.81;100552.41;4972046;28;20218;-71
2022/09/12 10:58:47;;;;;;;13.05;7.97;;;;;;;23.99;50.53;100543.66;4968188;28;20210;-70
2022/09/12 11:01:27;;;;;;;11.63;7.50;;;;;;;24.19;50.42;100549.53;4968423;28;20207;-72
2022/09/12 11:04:25;;;;;;;13.48;7.53;;;;;;;24.23;50.07;100545.34;4975720;28;20206;-72
2022/09/12 11:07:14;;;;;;;11.30;8.05;;;;;;;24.28;49.56;100536.50;4940072;28;20305;-68
2022/09/12 11:09:51;;;;;;;11.73;7.78;;;;;;;24.23;49.68;100534.50;4971585;28;20206;-69
2022/09/12 11:12:27;;;;;;;13.68;7.97;;;;;;;24.04;50.41;100530.22;4969504;28;20217;-69
2022/09/12 11:15:10;;;;;;;11.77;8.35;;;;;;;23.90;51.08;100534.25;4969641;28;20210;-71
2022/09/12 11:17:50;;;;;;;12.48;8.43;;;;;;;23.83;51.58;100538.94;4970714;28;20195;-72
2022/09/12 11:20:53;;;;;;;12.52;8.05;;;;;;;23.90;51.15;100528.81;4968635;28;20226;-72
2022/09/12 11:23:54;;;;;;;8.88;6.90;;;;;;;23.95;51.45;100532.47;4888823;28;20214;-73
2022/09/12 11:26:40;;;;;;;10.30;7.05;;;;;;;23.99;50.52;100527.41;4970475;28;20240;-72
2022/09/12 11:29:17;;;;;;;10.02;6.97;;;;;;;24.33;50.43;100523.09;4965058;28;20211;-72
2022/09/12 11:31:59;;;;;;;11.65;7.85;;;;;;;26.17;46.00;100513.53;4967395;28;20233;-71
2022/09/12 11:34:37;;;;;;;10.13;6.75;;;;;;;27.84;42.37;100511.97;4967399;28;20656;-71